• Join FlightAware (Why Join?)
  • Login
  • US Flag 
Rudolph Flight #1: Arrived! 
09:25AM EST


 

Airport Tracker/Info


-or-


 

Live Flight TrackerFlight Track Log ✈ QFA1129 ✈ 10-Jul-2013 ✈ YPPD / PHE - YPPH / PER

Flight Track Log - Related Links

Times and Time Zones

All times are in EDT time to prevent confusion due to time zone crossing. See the QFA1129 flight status page for this flight to view local times or setup timezone preferences in your user account.

Time Position Orientation Groundspeed Altitude Reporting Facility
EDT Latitude Longitude Course Direction KTS MPH feet Rate Location/Type
01:57AM -20.3790 118.6310 241° Southwest 19 22  Level FlightAware
01:58AM -20.3800 118.6300 223° Southwest 26 30 180 Level FlightAware
01:58AM -20.3810 118.6310 137° Southeast 17 20 240 Level FlightAware
01:59AM -20.3830 118.6330 137° Southeast 23 26 240 Level FlightAware
01:59AM -20.3840 118.6340 137° Southeast 26 30 300 Level FlightAware
01:59AM -20.3860 118.6360 137° Southeast 26 30 300 Level FlightAware
02:00AM -20.3890 118.6390 137° Southeast 31 36 360 Level FlightAware
02:00AM -20.3900 118.6390 180° South 18 21 480 Level FlightAware
02:01AM -20.3900 118.6380 270° West 22 25 540 Level FlightAware
02:01AM -20.3890 118.6360 298° West 59 68 780 Level FlightAware
02:02AM -20.3800 118.6270 317° Northwest 155 178 1,200 Level FlightAware
02:02AM -20.4294 118.6171 354° North 37,400 2,100 Climbing Aus ATC (Calculated)
02:02AM -20.3620 118.6100 318° Northwest 167 192 1,100 -59,520 Descending FlightAware
02:03AM -20.3520 118.5880 318° Northwest 213 245 1,700 1,860 Climbing FlightAware
02:03AM -20.5293 118.5988 348° North 37,400 2,340 Climbing Aus ATC (Calculated)
02:03AM -20.3670 118.5630 237° Southwest 234 269 2,800 -101,400 Descending FlightAware
02:04AM -20.3850 118.5580 195° South 238 274 3,600 2,160 Climbing FlightAware
02:04AM -20.4150 118.5700 195° South 275 316 4,400 1,920 Climbing FlightAware
02:04AM -20.4270 118.5830 135° Southeast 284 327 4,900 2,700 Climbing FlightAware
02:05AM -20.4570 118.6060 144° Southeast 295 339 6,200 2,640 Climbing FlightAware
02:05AM -20.4700 118.6080 172° South 298 343 6,600 2,880 Climbing FlightAware
02:05AM -20.7166 118.5645 10° North 37,400 3,120 Climbing Aus ATC (Calculated)
02:05AM -20.5030 118.6040 172° South 300 345 7,900 -45,780 Descending FlightAware
02:06AM -20.5420 118.5960 191° South 309 356 9,200 2,700 Climbing FlightAware
02:06AM -20.6080 118.5830 190° South 325 374 11,200 2,160 Climbing FlightAware
02:07AM -20.7985 118.5495 North 37,400 1,620 Climbing Aus ATC (Calculated)
02:07AM -20.6710 118.5720 190° South 361 415 12,300 -18,180 Descending FlightAware
02:08AM -20.7420 118.5590 190° South 375 432 14,100 2,700 Climbing FlightAware
02:08AM -20.9521 118.5213 North 37,400 2,880 Climbing Aus ATC (Calculated)
02:09AM -20.8190 118.5450 190° South 379 436 16,300 -18,000 Descending FlightAware
02:09AM -21.0193 118.5089 North 37,400 3,120 Climbing Aus ATC (Calculated)
02:09AM -20.8790 118.5340 190° South 375 432 18,200 -15,900 Descending FlightAware
02:10AM -20.9550 118.5200 190° South 376 433 20,200 1,680 Climbing FlightAware
02:11AM -21.0410 118.5050 189° South 392 451 20,900 1,800 Climbing FlightAware
02:11AM -21.1280 118.4880 190° South 410 472 23,100 2,700 Climbing FlightAware
02:12AM -21.1890 118.4770 190° South 412 474 24,300 1,980 Climbing FlightAware
02:13AM -21.2550 118.4650 190° South 415 478 25,400 1,680 Climbing FlightAware
02:13AM -21.2560 118.4637 190° South 403 464 25,400 1,380 Level Aus ATC (RADAR)
02:13AM -21.3427 118.4486 190° South 412 474 26,500  Climbing Aus ATC (RADAR)
02:13AM -21.3340 118.4510 190° South 415 478 25,400 1,320 Descending FlightAware
02:14AM -21.4119 118.4356 190° South 423 487 27,300 3,180 Climbing Aus ATC (RADAR)
02:14AM -21.4310 118.4330 190° South 440 506 27,500 1,260 Climbing FlightAware
02:15AM -21.5245 118.4162 190° South 439 505 28,500 1,080 Climbing Aus ATC (RADAR)
02:15AM -21.5780 118.4050 190° South 460 529 28,900 1,440 Climbing FlightAware
02:16AM -21.6850 118.3860 189° South 460 529 30,300 2,160 Climbing FlightAware
02:17AM -21.7680 118.3710 190° South 442 509 32,000 2,280 Climbing FlightAware
02:17AM -21.8439 118.3561 190° South 426 490 33,400 2,160 Climbing Aus ATC (RADAR)
02:18AM -21.8540 118.3550 190° South 428 493 33,600 1,500 Climbing FlightAware
02:18AM -21.9120 118.3437 190° South 419 482 34,300 1,380 Climbing Aus ATC (RADAR)
02:18AM -21.9350 118.3390 190° South 426 490 34,600 1,200 Climbing FlightAware
02:19AM -22.0100 118.3250 190° South 428 493 35,300 900 Climbing FlightAware
02:19AM -22.0084 118.3251 190° South 420 483 35,200 1,260 Descending Aus ATC (RADAR)
02:19AM -22.0770 118.3131 190° South 420 483 36,100 1,260 Climbing Aus ATC (RADAR)
02:20AM -22.0880 118.3110 190° South 425 489 36,000 -180 Descending FlightAware
02:20AM -22.1660 118.2960 190° South 425 489 36,000  Level FlightAware
02:21AM -22.2340 118.2840 189° South 426 490 36,000  Level FlightAware
02:21AM -22.3098 118.2696 189° South 421 484 36,000  Level Aus ATC (RADAR)
02:22AM -22.3290 118.2660 189° South 425 489 36,000  Level FlightAware
02:22AM -22.4068 118.2522 189° South 420 483 36,000  Level Aus ATC (RADAR)
02:22AM -22.4090 118.2510 189° South 425 489 36,000  Level FlightAware
02:23AM -22.4742 118.2394 189° South 418 481 36,000  Level Aus ATC (RADAR)
02:23AM -22.4930 118.2360 189° South 423 487 36,000  Level FlightAware
02:24AM -22.5612 118.2234 189° South 418 481 36,000  Level Aus ATC (RADAR)
02:24AM -22.5850 118.2190 189° South 423 487 36,000  Level FlightAware
02:24AM -22.6470 118.2080 189° South 423 487 36,000  Level FlightAware
02:25AM -22.7252 118.1927 189° South 418 481 36,000  Level Aus ATC (RADAR)
02:25AM -22.7260 118.1940 189° South 423 487 36,000  Level FlightAware
02:26AM -22.7870 118.1840 189° South 423 487 36,000  Level FlightAware
02:26AM -22.8460 118.1730 190° South 423 487 36,000 60 Level FlightAware
02:27AM -22.9485 118.1515 190° South 425 489 36,100  Climbing Aus ATC (RADAR)
02:27AM -22.9250 118.1600 190° South 423 487 36,000 -120 Descending FlightAware
02:28AM -22.9860 118.1490 189° South 423 487 36,000  Level FlightAware
02:28AM -23.1152 118.1203 189° South 429 494 36,000  Level Aus ATC (RADAR)
02:29AM -23.0650 118.1360 189° South 423 487 36,000  Level FlightAware
02:29AM -23.1240 118.1260 189° South 423 487 36,000  Level FlightAware
02:29AM -23.1440 118.1220 190° South 423 487 36,000 60 Level FlightAware
02:30AM -23.3321 118.0789 190° South 429 494 36,100  Climbing Aus ATC (RADAR)
02:31AM -23.2520 118.1040 190° South 423 487 36,000 -120 Descending FlightAware
02:31AM -23.3130 118.0930 189° South 423 487 36,000 60 Level FlightAware
02:32AM -23.5200 118.0442 189° South 428 493 36,100  Climbing Aus ATC (RADAR)
02:32AM -23.3930 118.0790 189° South 423 487 36,000 -180 Descending FlightAware
02:33AM -23.4520 118.0690 189° South 423 487 36,000  Level FlightAware
02:33AM -23.5330 118.0550 189° South 423 487 36,000 60 Level FlightAware
02:34AM -23.7859 117.9938 189° South 428 493 36,100 60 Climbing Aus ATC (RADAR)
02:35AM -23.8754 117.9765 190° South 431 496 36,100  Level Aus ATC (RADAR)
02:36AM -24.0042 117.9522 190° South 431 496 36,100  Level Aus ATC (RADAR)
02:37AM -24.1039 117.9333 190° South 432 497 36,100  Level Aus ATC (RADAR)
02:38AM -24.2432 117.9065 190° South 434 499 36,100  Level Aus ATC (RADAR)
02:39AM -24.3631 117.8832 190° South 435 501 36,100  Level Aus ATC (RADAR)
02:40AM -24.4524 117.8666 190° South 432 497 36,100  Level Aus ATC (RADAR)
02:40AM -24.5219 117.8530 190° South 432 497 36,100 -120 Level Aus ATC (RADAR)
02:41AM -24.6208 117.8332 190° South 430 495 36,000 -60 Descending Aus ATC (RADAR)
02:42AM -24.7289 117.8132 190° South 427 491 36,000  Level Aus ATC (RADAR)
02:43AM -24.8267 117.7943 190° South 426 490 36,100 60 Climbing Aus ATC (RADAR)
02:43AM -24.8948 117.7798 191° South 426 490 36,100  Level Aus ATC (RADAR)
02:44AM -24.9821 117.7643 189° South 423 487 36,100  Level Aus ATC (RADAR)
02:45AM -25.0984 117.7413 190° South 422 486 36,100  Level Aus ATC (RADAR)
02:46AM -25.1956 117.7239 189° South 423 487 36,100  Level Aus ATC (RADAR)
02:46AM -25.2630 117.7097 191° South 424 488 36,100  Level Aus ATC (RADAR)
02:47AM -25.3794 117.6864 190° South 423 487 36,100  Level Aus ATC (RADAR)
02:48AM -25.4861 117.6670 189° South 422 486 36,100  Level Aus ATC (RADAR)
02:49AM -25.5731 117.6501 190° South 422 486 36,100  Level Aus ATC (RADAR)
02:50AM -25.6407 117.6375 190° South 421 484 36,100  Level Aus ATC (RADAR)
02:50AM -25.7269 117.6206 190° South 418 481 36,100 -60 Level Aus ATC (RADAR)
02:52AM -25.8506 117.5954 190° South 415 478 36,000 -60 Descending Aus ATC (RADAR)
02:52AM -25.9359 117.5777 191° South 414 476 36,000  Level Aus ATC (RADAR)
02:53AM -26.0397 117.5576 190° South 413 475 36,000  Level Aus ATC (RADAR)
02:54AM -26.1343 117.5400 190° South 412 474 36,000  Level Aus ATC (RADAR)
02:55AM -26.2003 117.5281 189° South 411 473 36,000  Level Aus ATC (RADAR)
02:55AM -26.2942 117.5083 191° South 412 474 36,000  Level Aus ATC (RADAR)
02:56AM -26.3893 117.4892 190° South 416 479 36,000  Level Aus ATC (RADAR)
02:57AM -26.5133 117.4667 189° South 416 479 36,000  Level Aus ATC (RADAR)
02:59AM -26.6470 117.4410 190° South 417 480 36,000  Level Aus ATC (RADAR)
02:59AM -26.7524 117.4211 190° South 418 481 36,000  Level Aus ATC (RADAR)
03:00AM -26.8385 117.4039 190° South 419 482 36,000  Level Aus ATC (RADAR)
03:01AM -26.9245 117.3854 191° South 419 482 36,000  Level Aus ATC (RADAR)
03:05AM -27.3624 117.2966 191° South 40,000  Climbing Aus ATC (Calculated)
03:05AM -27.4217 117.2844 191° South 40,000 -960 Level Aus ATC (Calculated)
03:07AM -27.5772 117.2524 190° South  Level FlightAware Approximate
03:07AM -27.5774 117.2523 191° South 40,000  Level Aus ATC (Calculated)
03:07AM -27.6423 117.2389 191° South 40,000 -1,620 Level Aus ATC (Calculated)
03:09AM -27.8153 117.2032 190° South  Level FlightAware Approximate
03:09AM -27.8486 117.1916 190° South 425 489 36,000  Level Aus ATC (RADAR)
03:10AM -27.9409 117.1667 193° South 412 474 36,000  Level Aus ATC (RADAR)
03:10AM -28.0073 117.1547 189° South 412 474 36,000  Level Aus ATC (RADAR)
03:11AM -28.0926 117.1386 189° South 413 475 36,000  Level Aus ATC (RADAR)
03:12AM -28.2046 117.1126 192° South 410 472 36,000  Level Aus ATC (RADAR)
03:13AM -28.2979 117.0891 192° South 412 474 36,000  Level Aus ATC (RADAR)
03:14AM -28.4130 117.0714 188° South 417 480 36,000  Level Aus ATC (RADAR)
03:15AM -28.4980 117.0516 192° South 417 480 36,000  Level Aus ATC (RADAR)
03:15AM -28.5658 117.0412 188° South 422 486 36,000  Level Aus ATC (RADAR)
03:16AM -28.6612 117.0208 191° South 415 478 36,000  Level Aus ATC (RADAR)
03:17AM -28.7330 117.0150 190° South 423 487 36,000  Level FlightAware
03:17AM -28.7676 116.9996 190° South 422 486 36,000  Level Aus ATC (RADAR)
03:18AM -28.8150 116.9980 190° South 424 488 36,000  Level FlightAware
03:18AM -28.8900 116.9830 190° South 425 489 36,000  Level FlightAware
03:19AM -28.9800 116.9640 190° South 426 490 36,000  Level FlightAware
03:20AM -29.0750 116.9440 190° South 428 493 36,000  Level FlightAware
03:21AM -29.1747 116.9153 190° South 426 490 36,000  Level Aus ATC (RADAR)
03:21AM -29.1710 116.9240 190° South 428 493 36,000  Level FlightAware
03:21AM -29.2350 116.9110 190° South 428 493 36,000  Level FlightAware
03:22AM -29.3114 116.8883 190° South 429 494 36,000  Level Aus ATC (RADAR)
03:22AM -29.3360 116.8900 190° South 428 493 36,000  Level FlightAware
03:23AM -29.4130 116.8730 191° South 427 491 36,000  Level FlightAware
03:23AM -29.4830 116.8590 191° South 429 494 36,000  Level FlightAware
03:23AM -29.4961 116.8493 191° South 425 489 36,000  Level Aus ATC (RADAR)
03:24AM -29.5710 116.8400 191° South 428 493 36,000  Level FlightAware
03:25AM -29.6530 116.8230 190° South 429 494 36,000  Level FlightAware
03:26AM -29.7500 116.7973 190° South 428 493 36,000  Level Aus ATC (RADAR)
03:26AM -29.7700 116.7980 190° South 429 494 36,000  Level FlightAware
03:26AM -29.8460 116.7820 190° South 422 486 36,000  Level FlightAware
03:27AM -29.9330 116.7640 190° South 423 487 36,000 -240 Level FlightAware
03:28AM -30.0100 116.7480 190° South 396 456 35,700 -1,320 Descending FlightAware
03:28AM -30.0910 116.7300 191° South 393 452 34,200 -1,980 Descending FlightAware
03:29AM -30.1690 116.7140 190° South 378 435 32,800 -1,920 Descending FlightAware
03:30AM -30.2310 116.7000 190° South 377 434 31,700 -1,800 Descending FlightAware
03:30AM -30.2313 116.6969 190° South 380 437 31,700 -1,560 Level Aus ATC (RADAR)
03:30AM -30.2900 116.6850 190° South 355 409 30,800 -1,380 Descending FlightAware
03:30AM -30.2901 116.6823 190° South 371 427 30,900 -1,740 Climbing Aus ATC (RADAR)
03:31AM -30.3630 116.6610 196° South 353 406 29,500 -1,920 Descending FlightAware
03:32AM -30.4270 116.6400 196° South 353 406 28,300 -1,740 Descending FlightAware
03:32AM -30.4910 116.6200 195° South 354 407 27,200 -1,740 Descending FlightAware
03:33AM -30.5476 116.5987 195° South 359 413 26,100 -1,800 Descending Aus ATC (RADAR)
03:33AM -30.5550 116.6000 195° South 351 404 26,000 -1,860 Descending FlightAware
03:34AM -30.6190 116.5790 196° South 348 400 24,800 -1,800 Descending FlightAware
03:34AM -30.6740 116.5610 196° South 349 402 23,800 -1,680 Descending FlightAware
03:34AM -30.6749 116.5588 196° South 354 407 23,800 -1,740 Level Aus ATC (RADAR)
03:35AM -30.7430 116.5390 195° South 335 386 22,500 -1,740 Descending FlightAware
03:36AM -30.8040 116.5190 196° South 337 388 21,400 -1,680 Descending FlightAware
03:36AM -30.8630 116.5000 195° South 333 383 20,300 -1,680 Descending FlightAware
03:37AM -30.9300 116.4780 196° South 331 381 19,100 -1,620 Descending FlightAware
03:38AM -30.9960 116.4570 195° South 320 368 17,900 -1,620 Descending FlightAware
03:38AM -31.0408 116.4407 195° South 327 376 17,100 -1,680 Descending Aus ATC (RADAR)
03:39AM -31.0550 116.4360 195° South 325 374 16,800 -1,620 Descending FlightAware
03:39AM -31.1048 116.4152 195° South 323 372 15,900 -1,620 Descending Aus ATC (RADAR)
03:39AM -31.1190 116.4110 195° South 322 371 15,600 -1,680 Descending FlightAware
03:40AM -31.1680 116.3920 198° South 319 367 14,700 -1,620 Descending FlightAware
03:41AM -31.2244 116.3688 198° South 317 365 13,600 -1,620 Descending Aus ATC (RADAR)
03:41AM -31.2310 116.3670 198° South 310 357 13,500 -1,680 Descending FlightAware
03:41AM -31.2870 116.3450 199° South 307 353 12,400 -1,560 Descending FlightAware
03:42AM -31.3480 116.3210 199° South 310 357 11,300 -1,620 Descending FlightAware
03:43AM -31.4160 116.2930 199° South 295 339 9,900 -1,620 Descending FlightAware
03:43AM -31.4470 116.2740 208° Southwest 297 342 9,300 -1,560 Descending FlightAware
03:44AM -31.4820 116.2520 208° Southwest 294 338 8,500 -1,440 Descending FlightAware
03:44AM -31.5120 116.2330 208° Southwest 282 325 8,000 -1,440 Descending FlightAware
03:45AM -31.5470 116.2110 208° Southwest 274 315 7,200 -1,500 Descending FlightAware
03:45AM -31.5640 116.2000 209° Southwest 278 320 6,900 -1,500 Descending FlightAware
03:45AM -31.5920 116.1820 209° Southwest 275 316 6,200 -1,200 Descending FlightAware
03:46AM -31.6250 116.1600 210° Southwest 257 296 5,800 -900 Descending FlightAware
03:46AM -31.6510 116.1440 208° Southwest 243 280 5,400 -1,020 Descending FlightAware
03:47AM -31.6809 116.1246 208° Southwest 248 285 4,900 -1,200 Descending Aus ATC (RADAR)
03:47AM -31.6810 116.1250 208° Southwest 241 277 4,800 -840 Descending FlightAware
03:47AM -31.7110 116.1050 210° Southwest 225 259 4,500 -600 Descending FlightAware
03:48AM -31.7420 116.0860 208° Southwest 206 237 4,200 -600 Descending FlightAware
03:48AM -31.7530 116.0770 215° Southwest 193 222 4,000 -1,020 Descending FlightAware
03:48AM -31.7620 116.0640 231° Southwest 195 224 3,700 -1,200 Descending FlightAware
03:49AM -31.7760 116.0430 232° Southwest 191 220 3,200 -1,140 Descending FlightAware
03:49AM -31.7920 116.0180 233° Southwest 190 219 2,700 -1,080 Descending FlightAware
03:50AM -31.7980 116.0100 229° Southwest 181 208 2,500 -840 Descending FlightAware
03:50AM -31.8120 116.0020 206° Southwest 169 194 2,300 -840 Descending FlightAware
03:50AM -31.8320 115.9970 192° South 169 194 1,900 -900 Descending FlightAware
03:51AM -31.8540 115.9900 195° South 150 173 1,500 -780 Descending FlightAware
03:51AM -31.8700 115.9850 195° South 149 171 1,200 -780 Descending FlightAware
03:52AM -31.8910 115.9790 194° South 150 173 800 -900 Descending FlightAware
03:52AM -31.8980 115.9770 194° South 151 174 600 -780 Descending FlightAware
03:52AM -31.9190 115.9710 194° South 152 175 300 -600 Descending FlightAware
03:53AM -31.9380 115.9660 194° South 125 144 -600 Descending FlightAware
03:53AM -31.9460 115.9630 198° South 15 17  Level FlightAware
03:54AM -31.9450 115.9610 301° West 17 20  Level FlightAware
03:54AM -31.9430 115.9620 23° Northeast 21 24  Level FlightAware